CFG4CN LKPR-EDDF
Flight info
| Callsign | CFG4CN |
|---|---|
| Flight time | 0h 41m |
| Altitude | 30000 |
| Route | BALTU DCT DONAD DCT RAPET T170 GAPLA T178 KERAX KERAX5A |
| Aircraft | E190/M-SDGHIJ1RWY/LB1 |
Departure
| Time | 2026-05-04 09:43 |
|---|---|
| Airport | Václav Havel Airport Prague (LKPR) |
Arrival
| Time | 2026-05-04 10:25 |
|---|---|
| Airport | Frankfurt Main Airport (EDDF) |
| Time | Latitude | Longitude | Altitude | Speed | Heading |
|---|---|---|---|---|---|
| 2026-05-04 09:06 | 50.10393 | 14.26695 | 1171 ft | 0 kts | 33° |
| 2026-05-04 09:34 | 50.10383 | 14.26684 | 1169 ft | 4 kts | 34° |
| 2026-05-04 09:34 | 50.10361 | 14.26663 | 1172 ft | 4 kts | 6° |
| 2026-05-04 09:35 | 50.10347 | 14.26672 | 1168 ft | 4 kts | 304° |
| 2026-05-04 09:35 | 50.10331 | 14.26707 | 1169 ft | 4 kts | 304° |
| 2026-05-04 09:35 | 50.10327 | 14.26718 | 1169 ft | 3 kts | 304° |
| 2026-05-04 09:37 | 50.10327 | 14.26717 | 1169 ft | 1 kts | 304° |
| 2026-05-04 09:37 | 50.10345 | 14.26676 | 1170 ft | 9 kts | 302° |
| 2026-05-04 09:38 | 50.10314 | 14.26586 | 1171 ft | 13 kts | 215° |
| 2026-05-04 09:38 | 50.10234 | 14.26537 | 1176 ft | 12 kts | 156° |
| 2026-05-04 09:38 | 50.10170 | 14.26659 | 1175 ft | 17 kts | 126° |
| 2026-05-04 09:38 | 50.10098 | 14.26806 | 1184 ft | 17 kts | 128° |
| 2026-05-04 09:39 | 50.10034 | 14.26937 | 1192 ft | 15 kts | 126° |
| 2026-05-04 09:39 | 50.09962 | 14.27088 | 1197 ft | 18 kts | 127° |
| 2026-05-04 09:39 | 50.09887 | 14.27244 | 1200 ft | 18 kts | 127° |
| 2026-05-04 09:39 | 50.09794 | 14.27402 | 1203 ft | 21 kts | 135° |
| 2026-05-04 09:40 | 50.09687 | 14.27566 | 1205 ft | 22 kts | 135° |
| 2026-05-04 09:40 | 50.09581 | 14.27729 | 1210 ft | 22 kts | 135° |
| 2026-05-04 09:40 | 50.09469 | 14.27901 | 1214 ft | 22 kts | 136° |
| 2026-05-04 09:40 | 50.09355 | 14.28078 | 1213 ft | 24 kts | 135° |
| 2026-05-04 09:41 | 50.09242 | 14.28249 | 1211 ft | 18 kts | 139° |
| 2026-05-04 09:42 | 50.09511 | 14.27205 | 1204 ft | 124 kts | 307° |
| 2026-05-04 09:43 | 50.10147 | 14.25900 | 1539 ft | 167 kts | 308° |
| 2026-05-04 09:43 | 50.10893 | 14.24411 | 2354 ft | 180 kts | 308° |
| 2026-05-04 09:43 | 50.11660 | 14.22826 | 3202 ft | 186 kts | 307° |
| 2026-05-04 09:43 | 50.12449 | 14.21167 | 3988 ft | 196 kts | 304° |
| 2026-05-04 09:44 | 50.13288 | 14.19389 | 4703 ft | 211 kts | 304° |
| 2026-05-04 09:44 | 50.14182 | 14.17522 | 5433 ft | 221 kts | 304° |
| 2026-05-04 09:44 | 50.15145 | 14.15528 | 6181 ft | 240 kts | 305° |
| 2026-05-04 09:46 | 50.17857 | 13.95685 | 11618 ft | 318 kts | 270° |
| 2026-05-04 09:46 | 50.17938 | 13.92206 | 12567 ft | 324 kts | 270° |
| 2026-05-04 09:46 | 50.18030 | 13.88668 | 13558 ft | 329 kts | 270° |
| 2026-05-04 09:47 | 50.18121 | 13.85066 | 14574 ft | 333 kts | 270° |
| 2026-05-04 09:47 | 50.18212 | 13.81426 | 15631 ft | 336 kts | 270° |
| 2026-05-04 09:49 | 50.18713 | 13.54674 | 21605 ft | 369 kts | 269° |
| 2026-05-04 09:49 | 50.18767 | 13.50639 | 22318 ft | 373 kts | 269° |
| 2026-05-04 09:49 | 50.18818 | 13.46569 | 22992 ft | 378 kts | 269° |
| 2026-05-04 09:51 | 50.19056 | 13.21421 | 26720 ft | 396 kts | 269° |
| 2026-05-04 09:51 | 50.19083 | 13.17115 | 27286 ft | 398 kts | 269° |
| 2026-05-04 09:51 | 50.19105 | 13.12769 | 27824 ft | 401 kts | 269° |
| 2026-05-04 09:51 | 50.19130 | 13.08407 | 28360 ft | 404 kts | 269° |
| 2026-05-04 09:52 | 50.19150 | 13.04010 | 28850 ft | 406 kts | 268° |
| 2026-05-04 09:52 | 50.19159 | 12.99584 | 29285 ft | 410 kts | 269° |
| 2026-05-04 09:52 | 50.19176 | 12.95105 | 29572 ft | 413 kts | 269° |
| 2026-05-04 09:52 | 50.19197 | 12.90639 | 29864 ft | 409 kts | 269° |
| 2026-05-04 09:53 | 50.19216 | 12.86205 | 30076 ft | 409 kts | 269° |
| 2026-05-04 09:53 | 50.19246 | 12.77361 | 30057 ft | 409 kts | 269° |
| 2026-05-04 09:54 | 50.19268 | 12.68482 | 30060 ft | 408 kts | 269° |
| 2026-05-04 09:54 | 50.19283 | 12.59607 | 30066 ft | 408 kts | 269° |
| 2026-05-04 09:55 | 50.19291 | 12.50743 | 30035 ft | 408 kts | 269° |
| 2026-05-04 09:55 | 50.19293 | 12.41901 | 30029 ft | 405 kts | 268° |
| 2026-05-04 09:56 | 50.19288 | 12.33093 | 30026 ft | 406 kts | 268° |
| 2026-05-04 09:56 | 50.19276 | 12.24326 | 30032 ft | 406 kts | 268° |
| 2026-05-04 09:57 | 50.19265 | 12.15498 | 30035 ft | 406 kts | 268° |
| 2026-05-04 09:57 | 50.19235 | 12.06681 | 30046 ft | 406 kts | 268° |
| 2026-05-04 09:58 | 50.19201 | 11.97862 | 30032 ft | 405 kts | 268° |
| 2026-05-04 09:58 | 50.19160 | 11.89100 | 30057 ft | 404 kts | 268° |
| 2026-05-04 10:00 | 50.18940 | 11.54065 | 30046 ft | 405 kts | 267° |
| 2026-05-04 10:02 | 50.18682 | 11.23526 | 28017 ft | 393 kts | 267° |
| 2026-05-04 10:04 | 50.18367 | 10.94300 | 24929 ft | 378 kts | 267° |
| 2026-05-04 10:04 | 50.18315 | 10.90212 | 24522 ft | 376 kts | 267° |
| 2026-05-04 10:04 | 50.18264 | 10.86139 | 24116 ft | 375 kts | 267° |
| 2026-05-04 10:04 | 50.18212 | 10.82081 | 23717 ft | 373 kts | 267° |
| 2026-05-04 10:05 | 50.18163 | 10.78035 | 23269 ft | 372 kts | 267° |
| 2026-05-04 10:05 | 50.18108 | 10.74011 | 22803 ft | 370 kts | 267° |
| 2026-05-04 10:05 | 50.18054 | 10.70016 | 22351 ft | 367 kts | 267° |
| 2026-05-04 10:05 | 50.17992 | 10.66031 | 21896 ft | 365 kts | 267° |
| 2026-05-04 10:06 | 50.17930 | 10.62081 | 21480 ft | 363 kts | 266° |
| 2026-05-04 10:06 | 50.17869 | 10.58161 | 21085 ft | 361 kts | 266° |
| 2026-05-04 10:06 | 50.17813 | 10.54259 | 20681 ft | 358 kts | 266° |
| 2026-05-04 10:08 | 50.17410 | 10.31187 | 18398 ft | 351 kts | 266° |
| 2026-05-04 10:08 | 50.17346 | 10.27439 | 18000 ft | 349 kts | 266° |
| 2026-05-04 10:08 | 50.17283 | 10.23668 | 17589 ft | 347 kts | 266° |
| 2026-05-04 10:08 | 50.17220 | 10.19913 | 17223 ft | 345 kts | 266° |
| 2026-05-04 10:09 | 50.17158 | 10.16181 | 16860 ft | 344 kts | 266° |
| 2026-05-04 10:09 | 50.17092 | 10.12466 | 16514 ft | 342 kts | 266° |
| 2026-05-04 10:09 | 50.17013 | 10.08763 | 16163 ft | 341 kts | 266° |
| 2026-05-04 10:09 | 50.16936 | 10.05065 | 15813 ft | 340 kts | 266° |
| 2026-05-04 10:10 | 50.16855 | 10.01399 | 15472 ft | 338 kts | 266° |
| 2026-05-04 10:10 | 50.16779 | 9.97743 | 15132 ft | 336 kts | 266° |
| 2026-05-04 10:10 | 50.16707 | 9.94101 | 14799 ft | 335 kts | 266° |
| 2026-05-04 10:10 | 50.16638 | 9.90469 | 14478 ft | 333 kts | 266° |
| 2026-05-04 10:11 | 50.16570 | 9.86864 | 14153 ft | 332 kts | 267° |
| 2026-05-04 10:11 | 50.16496 | 9.83275 | 13836 ft | 331 kts | 266° |
| 2026-05-04 10:11 | 50.16421 | 9.79697 | 13481 ft | 329 kts | 267° |
| 2026-05-04 10:11 | 50.16341 | 9.76185 | 13132 ft | 327 kts | 266° |
| 2026-05-04 10:12 | 50.16259 | 9.72652 | 12786 ft | 325 kts | 266° |
| 2026-05-04 10:12 | 50.16182 | 9.69135 | 12437 ft | 323 kts | 266° |
| 2026-05-04 10:12 | 50.16103 | 9.65641 | 12122 ft | 322 kts | 266° |
| 2026-05-04 10:12 | 50.16030 | 9.62157 | 11788 ft | 320 kts | 266° |
| 2026-05-04 10:13 | 50.15946 | 9.58708 | 11464 ft | 318 kts | 266° |
| 2026-05-04 10:13 | 50.15857 | 9.55269 | 11139 ft | 316 kts | 266° |
| 2026-05-04 10:13 | 50.15767 | 9.51847 | 10822 ft | 314 kts | 266° |
| 2026-05-04 10:13 | 50.15683 | 9.48515 | 10504 ft | 301 kts | 266° |
| 2026-05-04 10:14 | 50.15605 | 9.45308 | 10193 ft | 291 kts | 266° |
| 2026-05-04 10:14 | 50.15530 | 9.42211 | 9896 ft | 281 kts | 265° |
| 2026-05-04 10:16 | 50.14970 | 9.21643 | 7680 ft | 270 kts | 266° |
| 2026-05-04 10:16 | 50.14882 | 9.18681 | 7326 ft | 270 kts | 266° |
| 2026-05-04 10:16 | 50.14792 | 9.15759 | 6972 ft | 269 kts | 266° |
| 2026-05-04 10:16 | 50.14716 | 9.12871 | 6632 ft | 266 kts | 266° |
| 2026-05-04 10:17 | 50.14635 | 9.10008 | 6289 ft | 264 kts | 266° |
| 2026-05-04 10:17 | 50.14538 | 9.07203 | 5920 ft | 260 kts | 265° |
| 2026-05-04 10:19 | 50.11299 | 8.89546 | 4133 ft | 218 kts | 249° |
| 2026-05-04 10:19 | 50.10784 | 8.87359 | 3995 ft | 212 kts | 249° |
| 2026-05-04 10:19 | 50.10289 | 8.85219 | 3952 ft | 209 kts | 250° |
| 2026-05-04 10:19 | 50.09797 | 8.83127 | 3648 ft | 201 kts | 248° |
| 2026-05-04 10:20 | 50.09312 | 8.81119 | 3410 ft | 196 kts | 250° |
| 2026-05-04 10:20 | 50.08848 | 8.79113 | 3108 ft | 195 kts | 249° |
| 2026-05-04 10:20 | 50.08390 | 8.77170 | 2865 ft | 193 kts | 249° |
| 2026-05-04 10:20 | 50.07933 | 8.75254 | 2616 ft | 183 kts | 248° |
| 2026-05-04 10:21 | 50.07509 | 8.73449 | 2357 ft | 174 kts | 249° |
| 2026-05-04 10:21 | 50.07090 | 8.71692 | 2130 ft | 171 kts | 249° |
| 2026-05-04 10:21 | 50.06830 | 8.69875 | 1795 ft | 174 kts | 259° |
| 2026-05-04 10:21 | 50.06635 | 8.68094 | 1598 ft | 157 kts | 257° |
| 2026-05-04 10:22 | 50.06028 | 8.64995 | 1278 ft | 148 kts | 248° |
| 2026-05-04 10:22 | 50.05663 | 8.63500 | 1105 ft | 148 kts | 249° |
| 2026-05-04 10:22 | 50.05318 | 8.62034 | 897 ft | 144 kts | 250° |
| 2026-05-04 10:23 | 50.04966 | 8.60577 | 664 ft | 142 kts | 250° |
| 2026-05-04 10:23 | 50.04620 | 8.59147 | 485 ft | 142 kts | 249° |
| 2026-05-04 10:25 | 50.04049 | 8.56138 | 349 ft | 0 kts | 336° |
| 2026-05-04 10:25 | 50.04054 | 8.56136 | 357 ft | 2 kts | 342° |
| 2026-05-04 10:25 | 50.04091 | 8.56154 | 350 ft | 10 kts | 44° |
| 2026-05-04 10:25 | 50.04126 | 8.56276 | 358 ft | 17 kts | 70° |
| 2026-05-04 10:26 | 50.04169 | 8.56456 | 361 ft | 19 kts | 70° |
| 2026-05-04 10:26 | 50.04216 | 8.56652 | 358 ft | 20 kts | 69° |
| 2026-05-04 10:26 | 50.04262 | 8.56847 | 361 ft | 19 kts | 69° |
| 2026-05-04 10:26 | 50.04312 | 8.57055 | 359 ft | 21 kts | 70° |
| 2026-05-04 10:27 | 50.04364 | 8.57273 | 362 ft | 20 kts | 69° |
| 2026-05-04 10:27 | 50.04410 | 8.57468 | 361 ft | 19 kts | 69° |
| 2026-05-04 10:27 | 50.04453 | 8.57647 | 365 ft | 16 kts | 70° |
| 2026-05-04 10:27 | 50.04493 | 8.57816 | 365 ft | 17 kts | 70° |
| 2026-05-04 10:28 | 50.04522 | 8.57935 | 364 ft | 18 kts | 70° |
| 2026-05-04 10:28 | 50.04567 | 8.58124 | 363 ft | 19 kts | 69° |
| 2026-05-04 10:28 | 50.04610 | 8.58303 | 371 ft | 16 kts | 69° |
| 2026-05-04 10:28 | 50.04663 | 8.58524 | 369 ft | 17 kts | 70° |
| 2026-05-04 10:29 | 50.04705 | 8.58696 | 370 ft | 17 kts | 67° |
| 2026-05-04 10:29 | 50.04750 | 8.58868 | 369 ft | 16 kts | 70° |
| 2026-05-04 10:29 | 50.04775 | 8.58975 | 371 ft | 14 kts | 68° |
| 2026-05-04 10:29 | 50.04844 | 8.58991 | 366 ft | 8 kts | 340° |
| 2026-05-04 10:30 | 50.04863 | 8.58980 | 367 ft | 2 kts | 340° |
| 2026-05-04 10:30 | 50.04872 | 8.58975 | 365 ft | 0 kts | 340° |